sensor_id;sensor_type;location;lat;lon;timestamp;P1;durP1;ratioP1;P2;durP2;ratioP2
48526;SDS011;34317;51.660;5.824;2023-11-21T00:00:15;21.00;;;11.32;;
48526;SDS011;34317;51.660;5.824;2023-11-21T00:02:43;22.95;;;10.93;;
48526;SDS011;34317;51.660;5.824;2023-11-21T00:05:13;26.58;;;11.60;;
48526;SDS011;34317;51.660;5.824;2023-11-21T00:07:41;22.45;;;11.23;;
48526;SDS011;34317;51.660;5.824;2023-11-21T00:10:10;23.60;;;11.73;;
48526;SDS011;34317;51.660;5.824;2023-11-21T00:12:41;25.60;;;11.68;;
48526;SDS011;34317;51.660;5.824;2023-11-21T00:15:09;24.58;;;11.75;;
48526;SDS011;34317;51.660;5.824;2023-11-21T00:17:40;28.60;;;11.70;;
48526;SDS011;34317;51.660;5.824;2023-11-21T00:20:09;27.70;;;11.13;;
48526;SDS011;34317;51.660;5.824;2023-11-21T00:22:40;25.50;;;12.20;;
48526;SDS011;34317;51.660;5.824;2023-11-21T00:25:09;23.25;;;11.80;;
48526;SDS011;34317;51.660;5.824;2023-11-21T00:27:36;28.52;;;11.95;;
48526;SDS011;34317;51.660;5.824;2023-11-21T00:30:04;25.27;;;11.73;;
48526;SDS011;34317;51.660;5.824;2023-11-21T00:32:33;21.63;;;10.65;;
48526;SDS011;34317;51.660;5.824;2023-11-21T00:35:01;25.55;;;11.05;;
48526;SDS011;34317;51.660;5.824;2023-11-21T00:37:28;22.67;;;11.02;;
48526;SDS011;34317;51.660;5.824;2023-11-21T00:39:58;26.55;;;11.60;;
48526;SDS011;34317;51.660;5.824;2023-11-21T00:42:25;20.80;;;11.95;;
48526;SDS011;34317;51.660;5.824;2023-11-21T00:44:53;27.65;;;11.25;;
48526;SDS011;34317;51.660;5.824;2023-11-21T00:47:20;19.95;;;10.85;;
48526;SDS011;34317;51.660;5.824;2023-11-21T00:49:48;24.90;;;11.45;;
48526;SDS011;34317;51.660;5.824;2023-11-21T00:52:16;21.02;;;11.63;;
48526;SDS011;34317;51.660;5.824;2023-11-21T00:54:43;20.92;;;10.30;;
48526;SDS011;34317;51.660;5.824;2023-11-21T00:57:11;25.60;;;11.40;;
48526;SDS011;34317;51.660;5.824;2023-11-21T00:59:39;25.83;;;11.38;;
48526;SDS011;34317;51.660;5.824;2023-11-21T01:02:07;28.88;;;11.95;;
48526;SDS011;34317;51.660;5.824;2023-11-21T01:04:37;28.85;;;11.40;;
48526;SDS011;34317;51.660;5.824;2023-11-21T01:07:05;24.38;;;11.43;;
48526;SDS011;34317;51.660;5.824;2023-11-21T01:09:32;19.40;;;10.75;;
48526;SDS011;34317;51.660;5.824;2023-11-21T01:12:00;26.50;;;12.43;;
48526;SDS011;34317;51.660;5.824;2023-11-21T01:14:27;26.15;;;12.02;;
48526;SDS011;34317;51.660;5.824;2023-11-21T01:16:56;24.85;;;11.05;;
48526;SDS011;34317;51.660;5.824;2023-11-21T01:19:24;25.75;;;11.95;;
48526;SDS011;34317;51.660;5.824;2023-11-21T01:21:52;24.13;;;11.23;;
48526;SDS011;34317;51.660;5.824;2023-11-21T01:24:20;25.02;;;11.73;;
48526;SDS011;34317;51.660;5.824;2023-11-21T01:26:47;28.55;;;12.77;;
48526;SDS011;34317;51.660;5.824;2023-11-21T01:29:14;26.92;;;12.20;;
48526;SDS011;34317;51.660;5.824;2023-11-21T01:31:42;24.15;;;11.55;;
48526;SDS011;34317;51.660;5.824;2023-11-21T01:34:09;25.65;;;11.55;;
48526;SDS011;34317;51.660;5.824;2023-11-21T01:36:37;32.25;;;12.23;;
48526;SDS011;34317;51.660;5.824;2023-11-21T01:39:04;25.60;;;12.13;;
48526;SDS011;34317;51.660;5.824;2023-11-21T01:41:35;29.80;;;11.63;;
48526;SDS011;34317;51.660;5.824;2023-11-21T01:44:03;28.55;;;12.52;;
48526;SDS011;34317;51.660;5.824;2023-11-21T01:46:34;33.42;;;13.82;;
48526;SDS011;34317;51.660;5.824;2023-11-21T01:49:02;27.30;;;13.25;;
48526;SDS011;34317;51.660;5.824;2023-11-21T01:51:30;33.50;;;13.20;;
48526;SDS011;34317;51.660;5.824;2023-11-21T01:53:58;28.30;;;12.13;;
48526;SDS011;34317;51.660;5.824;2023-11-21T01:56:26;28.27;;;12.48;;
48526;SDS011;34317;51.660;5.824;2023-11-21T01:58:53;34.95;;;13.52;;
48526;SDS011;34317;51.660;5.824;2023-11-21T02:01:22;34.53;;;13.13;;
48526;SDS011;34317;51.660;5.824;2023-11-21T02:03:50;34.65;;;14.18;;
48526;SDS011;34317;51.660;5.824;2023-11-21T02:06:18;36.95;;;14.73;;
48526;SDS011;34317;51.660;5.824;2023-11-21T02:08:46;45.20;;;14.38;;
48526;SDS011;34317;51.660;5.824;2023-11-21T02:11:13;48.00;;;14.90;;
48526;SDS011;34317;51.660;5.824;2023-11-21T02:13:40;58.47;;;14.63;;
48526;SDS011;34317;51.660;5.824;2023-11-21T02:16:11;61.60;;;14.13;;
48526;SDS011;34317;51.660;5.824;2023-11-21T02:18:41;49.15;;;13.85;;
48526;SDS011;34317;51.660;5.824;2023-11-21T02:21:09;88.72;;;15.15;;
48526;SDS011;34317;51.660;5.824;2023-11-21T02:23:37;54.80;;;14.52;;
48526;SDS011;34317;51.660;5.824;2023-11-21T02:26:06;130.40;;;15.30;;
48526;SDS011;34317;51.660;5.824;2023-11-21T02:28:33;51.80;;;12.98;;
48526;SDS011;34317;51.660;5.824;2023-11-21T02:31:00;39.42;;;13.73;;
48526;SDS011;34317;51.660;5.824;2023-11-21T02:33:30;71.03;;;14.45;;
48526;SDS011;34317;51.660;5.824;2023-11-21T02:36:01;70.10;;;13.98;;
48526;SDS011;34317;51.660;5.824;2023-11-21T02:38:29;86.47;;;14.45;;
48526;SDS011;34317;51.660;5.824;2023-11-21T02:40:57;52.15;;;13.38;;
48526;SDS011;34317;51.660;5.824;2023-11-21T02:43:26;67.80;;;13.07;;
48526;SDS011;34317;51.660;5.824;2023-11-21T02:45:53;67.75;;;13.35;;
48526;SDS011;34317;51.660;5.824;2023-11-21T02:48:21;84.95;;;14.13;;
48526;SDS011;34317;51.660;5.824;2023-11-21T02:50:51;70.13;;;13.52;;
48526;SDS011;34317;51.660;5.824;2023-11-21T02:53:20;73.32;;;13.70;;
48526;SDS011;34317;51.660;5.824;2023-11-21T02:55:47;59.00;;;13.40;;
48526;SDS011;34317;51.660;5.824;2023-11-21T02:58:14;40.15;;;12.68;;
48526;SDS011;34317;51.660;5.824;2023-11-21T03:00:42;62.72;;;13.63;;
48526;SDS011;34317;51.660;5.824;2023-11-21T03:03:12;41.28;;;12.90;;
48526;SDS011;34317;51.660;5.824;2023-11-21T03:05:40;53.10;;;13.82;;
48526;SDS011;34317;51.660;5.824;2023-11-21T03:08:07;39.03;;;12.95;;
48526;SDS011;34317;51.660;5.824;2023-11-21T03:10:34;47.20;;;12.15;;
48526;SDS011;34317;51.660;5.824;2023-11-21T03:13:01;55.08;;;13.15;;
48526;SDS011;34317;51.660;5.824;2023-11-21T03:15:29;84.80;;;14.60;;
48526;SDS011;34317;51.660;5.824;2023-11-21T03:17:58;77.25;;;13.25;;
48526;SDS011;34317;51.660;5.824;2023-11-21T03:20:25;58.05;;;12.48;;
48526;SDS011;34317;51.660;5.824;2023-11-21T03:22:53;46.78;;;13.07;;
48526;SDS011;34317;51.660;5.824;2023-11-21T03:25:20;62.47;;;13.65;;
48526;SDS011;34317;51.660;5.824;2023-11-21T03:28:09;60.72;;;13.10;;
48526;SDS011;34317;51.660;5.824;2023-11-21T03:30:36;76.50;;;13.90;;
48526;SDS011;34317;51.660;5.824;2023-11-21T03:33:03;56.38;;;14.18;;
48526;SDS011;34317;51.660;5.824;2023-11-21T03:35:31;92.18;;;13.90;;
48526;SDS011;34317;51.660;5.824;2023-11-21T03:38:00;35.60;;;13.60;;
48526;SDS011;34317;51.660;5.824;2023-11-21T03:40:29;36.58;;;13.02;;
48526;SDS011;34317;51.660;5.824;2023-11-21T03:42:58;58.45;;;13.40;;
48526;SDS011;34317;51.660;5.824;2023-11-21T03:45:25;152.75;;;15.77;;
48526;SDS011;34317;51.660;5.824;2023-11-21T03:47:57;42.85;;;13.43;;
48526;SDS011;34317;51.660;5.824;2023-11-21T03:50:25;52.55;;;13.82;;
48526;SDS011;34317;51.660;5.824;2023-11-21T03:52:53;36.63;;;13.40;;
48526;SDS011;34317;51.660;5.824;2023-11-21T03:55:21;41.72;;;14.23;;
48526;SDS011;34317;51.660;5.824;2023-11-21T03:57:52;56.80;;;14.05;;
48526;SDS011;34317;51.660;5.824;2023-11-21T04:00:19;60.50;;;14.63;;
48526;SDS011;34317;51.660;5.824;2023-11-21T04:05:24;53.58;;;13.32;;
48526;SDS011;34317;51.660;5.824;2023-11-21T04:07:58;60.55;;;13.85;;
48526;SDS011;34317;51.660;5.824;2023-11-21T04:10:26;68.37;;;13.60;;
48526;SDS011;34317;51.660;5.824;2023-11-21T04:12:53;64.38;;;13.80;;
48526;SDS011;34317;51.660;5.824;2023-11-21T04:15:24;57.05;;;12.98;;
48526;SDS011;34317;51.660;5.824;2023-11-21T04:17:52;95.03;;;14.98;;
48526;SDS011;34317;51.660;5.824;2023-11-21T04:20:37;60.97;;;13.82;;
48526;SDS011;34317;51.660;5.824;2023-11-21T04:23:04;41.53;;;14.10;;
48526;SDS011;34317;51.660;5.824;2023-11-21T04:25:32;36.47;;;14.10;;
48526;SDS011;34317;51.660;5.824;2023-11-21T04:27:59;51.25;;;13.00;;
48526;SDS011;34317;51.660;5.824;2023-11-21T04:30:26;58.03;;;13.68;;
48526;SDS011;34317;51.660;5.824;2023-11-21T04:32:54;48.38;;;14.25;;
48526;SDS011;34317;51.660;5.824;2023-11-21T04:35:29;64.60;;;14.48;;
48526;SDS011;34317;51.660;5.824;2023-11-21T04:37:56;42.50;;;13.30;;
48526;SDS011;34317;51.660;5.824;2023-11-21T04:40:26;55.55;;;12.73;;
48526;SDS011;34317;51.660;5.824;2023-11-21T04:42:54;47.80;;;13.02;;
48526;SDS011;34317;51.660;5.824;2023-11-21T04:45:21;36.55;;;12.68;;
48526;SDS011;34317;51.660;5.824;2023-11-21T04:47:49;52.95;;;13.68;;
48526;SDS011;34317;51.660;5.824;2023-11-21T04:50:16;33.95;;;12.48;;
48526;SDS011;34317;51.660;5.824;2023-11-21T04:52:44;38.80;;;12.98;;
48526;SDS011;34317;51.660;5.824;2023-11-21T04:55:11;58.42;;;13.70;;
48526;SDS011;34317;51.660;5.824;2023-11-21T04:57:38;26.52;;;12.98;;
48526;SDS011;34317;51.660;5.824;2023-11-21T05:00:09;81.88;;;14.38;;
48526;SDS011;34317;51.660;5.824;2023-11-21T05:02:37;29.50;;;13.13;;
48526;SDS011;34317;51.660;5.824;2023-11-21T05:05:06;30.15;;;12.95;;
48526;SDS011;34317;51.660;5.824;2023-11-21T05:07:34;33.63;;;12.95;;
48526;SDS011;34317;51.660;5.824;2023-11-21T05:10:12;46.40;;;13.90;;
48526;SDS011;34317;51.660;5.824;2023-11-21T05:12:41;28.05;;;13.25;;
48526;SDS011;34317;51.660;5.824;2023-11-21T05:15:09;36.45;;;13.52;;
48526;SDS011;34317;51.660;5.824;2023-11-21T05:17:41;27.25;;;12.93;;
48526;SDS011;34317;51.660;5.824;2023-11-21T05:20:13;32.70;;;12.55;;
48526;SDS011;34317;51.660;5.824;2023-11-21T05:22:42;29.17;;;13.02;;
48526;SDS011;34317;51.660;5.824;2023-11-21T05:25:09;36.63;;;14.25;;
48526;SDS011;34317;51.660;5.824;2023-11-21T05:27:38;36.08;;;13.68;;
48526;SDS011;34317;51.660;5.824;2023-11-21T05:30:06;30.73;;;12.43;;
48526;SDS011;34317;51.660;5.824;2023-11-21T05:32:38;29.60;;;13.40;;
48526;SDS011;34317;51.660;5.824;2023-11-21T05:35:08;36.13;;;14.38;;
48526;SDS011;34317;51.660;5.824;2023-11-21T05:37:38;24.77;;;13.40;;
48526;SDS011;34317;51.660;5.824;2023-11-21T05:40:07;30.75;;;13.60;;
48526;SDS011;34317;51.660;5.824;2023-11-21T05:42:35;28.20;;;13.60;;
48526;SDS011;34317;51.660;5.824;2023-11-21T05:45:03;32.78;;;13.50;;
48526;SDS011;34317;51.660;5.824;2023-11-21T05:47:38;38.97;;;12.83;;
48526;SDS011;34317;51.660;5.824;2023-11-21T05:50:09;31.40;;;12.43;;
48526;SDS011;34317;51.660;5.824;2023-11-21T05:52:42;34.10;;;14.10;;
48526;SDS011;34317;51.660;5.824;2023-11-21T05:55:15;28.33;;;13.25;;
48526;SDS011;34317;51.660;5.824;2023-11-21T05:57:43;29.55;;;12.52;;
48526;SDS011;34317;51.660;5.824;2023-11-21T06:00:11;41.63;;;12.95;;
48526;SDS011;34317;51.660;5.824;2023-11-21T06:02:59;27.20;;;13.20;;
48526;SDS011;34317;51.660;5.824;2023-11-21T06:05:27;30.88;;;13.23;;
48526;SDS011;34317;51.660;5.824;2023-11-21T06:07:55;30.90;;;13.32;;
48526;SDS011;34317;51.660;5.824;2023-11-21T06:10:26;26.85;;;12.52;;
48526;SDS011;34317;51.660;5.824;2023-11-21T06:12:55;26.42;;;12.73;;
48526;SDS011;34317;51.660;5.824;2023-11-21T06:15:23;27.80;;;13.30;;
48526;SDS011;34317;51.660;5.824;2023-11-21T06:17:51;24.40;;;12.30;;
48526;SDS011;34317;51.660;5.824;2023-11-21T06:20:21;25.92;;;12.55;;
48526;SDS011;34317;51.660;5.824;2023-11-21T06:22:50;26.13;;;13.10;;
48526;SDS011;34317;51.660;5.824;2023-11-21T06:25:19;24.23;;;12.18;;
48526;SDS011;34317;51.660;5.824;2023-11-21T06:27:47;28.08;;;12.93;;
48526;SDS011;34317;51.660;5.824;2023-11-21T06:30:16;28.40;;;12.70;;
48526;SDS011;34317;51.660;5.824;2023-11-21T06:32:46;27.73;;;12.77;;
48526;SDS011;34317;51.660;5.824;2023-11-21T06:35:15;22.48;;;12.02;;
48526;SDS011;34317;51.660;5.824;2023-11-21T06:37:44;23.85;;;12.43;;
48526;SDS011;34317;51.660;5.824;2023-11-21T06:40:16;23.70;;;12.57;;
48526;SDS011;34317;51.660;5.824;2023-11-21T06:42:47;26.42;;;12.07;;
48526;SDS011;34317;51.660;5.824;2023-11-21T06:45:15;20.92;;;11.75;;
48526;SDS011;34317;51.660;5.824;2023-11-21T06:50:13;26.80;;;12.32;;
48526;SDS011;34317;51.660;5.824;2023-11-21T06:52:42;20.15;;;12.00;;
48526;SDS011;34317;51.660;5.824;2023-11-21T06:55:10;19.00;;;10.75;;
48526;SDS011;34317;51.660;5.824;2023-11-21T06:57:44;19.95;;;10.35;;
48526;SDS011;34317;51.660;5.824;2023-11-21T07:00:13;18.95;;;10.80;;
48526;SDS011;34317;51.660;5.824;2023-11-21T07:02:44;20.08;;;11.07;;
48526;SDS011;34317;51.660;5.824;2023-11-21T07:05:12;19.80;;;10.48;;
48526;SDS011;34317;51.660;5.824;2023-11-21T07:07:42;23.58;;;12.18;;
48526;SDS011;34317;51.660;5.824;2023-11-21T07:10:10;23.35;;;11.77;;
48526;SDS011;34317;51.660;5.824;2023-11-21T07:12:37;19.23;;;11.32;;
48526;SDS011;34317;51.660;5.824;2023-11-21T07:15:05;21.83;;;11.60;;
48526;SDS011;34317;51.660;5.824;2023-11-21T07:17:40;22.08;;;11.55;;
48526;SDS011;34317;51.660;5.824;2023-11-21T07:20:08;19.90;;;11.07;;
48526;SDS011;34317;51.660;5.824;2023-11-21T07:22:39;21.15;;;11.68;;
48526;SDS011;34317;51.660;5.824;2023-11-21T07:25:07;22.63;;;11.73;;
48526;SDS011;34317;51.660;5.824;2023-11-21T07:27:36;23.10;;;12.02;;
48526;SDS011;34317;51.660;5.824;2023-11-21T07:30:05;18.60;;;11.73;;
48526;SDS011;34317;51.660;5.824;2023-11-21T07:32:37;23.30;;;12.25;;
48526;SDS011;34317;51.660;5.824;2023-11-21T07:37:37;21.05;;;11.32;;
48526;SDS011;34317;51.660;5.824;2023-11-21T07:42:37;20.25;;;11.52;;
48526;SDS011;34317;51.660;5.824;2023-11-21T07:45:05;24.65;;;12.75;;
48526;SDS011;34317;51.660;5.824;2023-11-21T07:47:36;20.92;;;11.85;;
48526;SDS011;34317;51.660;5.824;2023-11-21T07:50:03;25.60;;;12.60;;
48526;SDS011;34317;51.660;5.824;2023-11-21T07:55:07;23.30;;;13.27;;
48526;SDS011;34317;51.660;5.824;2023-11-21T07:58:10;26.42;;;13.70;;
48526;SDS011;34317;51.660;5.824;2023-11-21T08:05:57;16.77;;;8.73;;
48526;SDS011;34317;51.660;5.824;2023-11-21T08:08:26;19.23;;;10.68;;
48526;SDS011;34317;51.660;5.824;2023-11-21T08:10:54;20.90;;;10.90;;
48526;SDS011;34317;51.660;5.824;2023-11-21T08:13:28;22.38;;;11.30;;
48526;SDS011;34317;51.660;5.824;2023-11-21T08:15:57;21.50;;;11.02;;
48526;SDS011;34317;51.660;5.824;2023-11-21T08:18:29;19.80;;;10.85;;
48526;SDS011;34317;51.660;5.824;2023-11-21T08:20:57;22.08;;;11.57;;
48526;SDS011;34317;51.660;5.824;2023-11-21T08:23:24;20.95;;;11.20;;
48526;SDS011;34317;51.660;5.824;2023-11-21T08:25:55;20.48;;;10.43;;
48526;SDS011;34317;51.660;5.824;2023-11-21T08:28:22;19.55;;;10.30;;
48526;SDS011;34317;51.660;5.824;2023-11-21T08:30:53;21.40;;;10.07;;
48526;SDS011;34317;51.660;5.824;2023-11-21T08:33:21;20.40;;;8.88;;
48526;SDS011;34317;51.660;5.824;2023-11-21T08:35:49;16.92;;;9.73;;
48526;SDS011;34317;51.660;5.824;2023-11-21T08:38:17;19.83;;;10.05;;
48526;SDS011;34317;51.660;5.824;2023-11-21T08:40:44;23.35;;;10.30;;
48526;SDS011;34317;51.660;5.824;2023-11-21T08:43:12;22.10;;;11.32;;
48526;SDS011;34317;51.660;5.824;2023-11-21T08:45:41;23.02;;;11.55;;
48526;SDS011;34317;51.660;5.824;2023-11-21T08:48:08;18.70;;;11.70;;
48526;SDS011;34317;51.660;5.824;2023-11-21T08:50:35;19.92;;;11.10;;
48526;SDS011;34317;51.660;5.824;2023-11-21T08:53:04;21.00;;;11.60;;
48526;SDS011;34317;51.660;5.824;2023-11-21T08:55:32;23.88;;;11.38;;
48526;SDS011;34317;51.660;5.824;2023-11-21T08:58:04;23.13;;;11.55;;
48526;SDS011;34317;51.660;5.824;2023-11-21T09:00:32;22.52;;;11.68;;
48526;SDS011;34317;51.660;5.824;2023-11-21T09:03:05;20.50;;;11.90;;
48526;SDS011;34317;51.660;5.824;2023-11-21T09:05:37;20.63;;;11.80;;
48526;SDS011;34317;51.660;5.824;2023-11-21T09:08:07;23.85;;;12.18;;
48526;SDS011;34317;51.660;5.824;2023-11-21T09:10:34;23.05;;;12.93;;
48526;SDS011;34317;51.660;5.824;2023-11-21T09:13:06;22.75;;;12.57;;
48526;SDS011;34317;51.660;5.824;2023-11-21T09:15:37;24.70;;;13.25;;
48526;SDS011;34317;51.660;5.824;2023-11-21T09:18:04;21.20;;;12.85;;
48526;SDS011;34317;51.660;5.824;2023-11-21T09:20:32;23.50;;;12.30;;
48526;SDS011;34317;51.660;5.824;2023-11-21T09:22:59;23.35;;;12.68;;
48526;SDS011;34317;51.660;5.824;2023-11-21T09:25:27;22.98;;;12.60;;
48526;SDS011;34317;51.660;5.824;2023-11-21T09:27:55;21.83;;;12.07;;
48526;SDS011;34317;51.660;5.824;2023-11-21T09:30:24;23.52;;;11.93;;
48526;SDS011;34317;51.660;5.824;2023-11-21T09:32:51;21.85;;;10.20;;
48526;SDS011;34317;51.660;5.824;2023-11-21T09:35:25;19.98;;;10.10;;
48526;SDS011;34317;51.660;5.824;2023-11-21T09:37:52;27.80;;;11.30;;
48526;SDS011;34317;51.660;5.824;2023-11-21T09:40:22;23.38;;;11.13;;
48526;SDS011;34317;51.660;5.824;2023-11-21T09:42:56;26.23;;;12.10;;
48526;SDS011;34317;51.660;5.824;2023-11-21T09:45:25;28.92;;;12.27;;
48526;SDS011;34317;51.660;5.824;2023-11-21T09:47:58;31.88;;;14.35;;
48526;SDS011;34317;51.660;5.824;2023-11-21T09:50:25;27.45;;;14.10;;
48526;SDS011;34317;51.660;5.824;2023-11-21T09:55:37;25.23;;;13.40;;
48526;SDS011;34317;51.660;5.824;2023-11-21T09:58:07;33.05;;;13.77;;
48526;SDS011;34317;51.660;5.824;2023-11-21T10:00:45;28.15;;;14.15;;
48526;SDS011;34317;51.660;5.824;2023-11-21T10:03:14;28.80;;;14.90;;
48526;SDS011;34317;51.660;5.824;2023-11-21T10:05:42;27.70;;;13.73;;
48526;SDS011;34317;51.660;5.824;2023-11-21T10:08:11;30.00;;;14.98;;
48526;SDS011;34317;51.660;5.824;2023-11-21T10:10:43;32.13;;;15.38;;
48526;SDS011;34317;51.660;5.824;2023-11-21T10:13:13;34.63;;;16.05;;
48526;SDS011;34317;51.660;5.824;2023-11-21T10:15:44;32.45;;;15.98;;
48526;SDS011;34317;51.660;5.824;2023-11-21T10:18:16;37.83;;;16.38;;
48526;SDS011;34317;51.660;5.824;2023-11-21T10:20:46;30.70;;;16.08;;
48526;SDS011;34317;51.660;5.824;2023-11-21T10:23:19;31.40;;;15.32;;
48526;SDS011;34317;51.660;5.824;2023-11-21T10:25:49;34.72;;;15.80;;
48526;SDS011;34317;51.660;5.824;2023-11-21T10:28:19;28.50;;;12.45;;
48526;SDS011;34317;51.660;5.824;2023-11-21T10:30:48;31.58;;;13.57;;
48526;SDS011;34317;51.660;5.824;2023-11-21T10:33:16;31.35;;;14.30;;
48526;SDS011;34317;51.660;5.824;2023-11-21T10:35:44;31.92;;;14.20;;
48526;SDS011;34317;51.660;5.824;2023-11-21T10:38:21;28.05;;;13.77;;
48526;SDS011;34317;51.660;5.824;2023-11-21T10:40:51;29.60;;;13.75;;
48526;SDS011;34317;51.660;5.824;2023-11-21T10:43:19;30.05;;;13.88;;
48526;SDS011;34317;51.660;5.824;2023-11-21T10:45:51;32.38;;;13.93;;
48526;SDS011;34317;51.660;5.824;2023-11-21T10:48:18;34.45;;;15.27;;
48526;SDS011;34317;51.660;5.824;2023-11-21T10:50:47;32.92;;;14.25;;
48526;SDS011;34317;51.660;5.824;2023-11-21T10:53:15;27.88;;;13.77;;
48526;SDS011;34317;51.660;5.824;2023-11-21T10:55:43;33.33;;;14.65;;
48526;SDS011;34317;51.660;5.824;2023-11-21T10:58:13;35.35;;;16.27;;
48526;SDS011;34317;51.660;5.824;2023-11-21T11:00:41;37.80;;;16.05;;
48526;SDS011;34317;51.660;5.824;2023-11-21T11:03:12;34.80;;;16.17;;
48526;SDS011;34317;51.660;5.824;2023-11-21T11:05:43;38.17;;;16.67;;
48526;SDS011;34317;51.660;5.824;2023-11-21T11:08:21;43.15;;;17.00;;
48526;SDS011;34317;51.660;5.824;2023-11-21T11:10:55;40.20;;;17.65;;
48526;SDS011;34317;51.660;5.824;2023-11-21T11:13:22;36.28;;;16.50;;
48526;SDS011;34317;51.660;5.824;2023-11-21T11:15:56;41.22;;;16.70;;
48526;SDS011;34317;51.660;5.824;2023-11-21T11:18:27;37.92;;;16.70;;
48526;SDS011;34317;51.660;5.824;2023-11-21T11:20:59;35.08;;;15.18;;
48526;SDS011;34317;51.660;5.824;2023-11-21T11:26:19;35.22;;;16.00;;
48526;SDS011;34317;51.660;5.824;2023-11-21T11:37:33;28.25;;;14.02;;
48526;SDS011;34317;51.660;5.824;2023-11-21T11:40:05;31.40;;;16.35;;
48526;SDS011;34317;51.660;5.824;2023-11-21T11:42:33;31.27;;;15.55;;
48526;SDS011;34317;51.660;5.824;2023-11-21T11:45:00;32.55;;;15.77;;
48526;SDS011;34317;51.660;5.824;2023-11-21T11:47:28;25.08;;;13.65;;
48526;SDS011;34317;51.660;5.824;2023-11-21T11:52:44;31.02;;;15.68;;
48526;SDS011;34317;51.660;5.824;2023-11-21T11:55:21;26.90;;;14.13;;
48526;SDS011;34317;51.660;5.824;2023-11-21T11:57:51;29.33;;;14.73;;
48526;SDS011;34317;51.660;5.824;2023-11-21T12:00:21;28.67;;;13.75;;
48526;SDS011;34317;51.660;5.824;2023-11-21T12:02:55;28.38;;;13.75;;
48526;SDS011;34317;51.660;5.824;2023-11-21T12:05:24;29.38;;;13.25;;
48526;SDS011;34317;51.660;5.824;2023-11-21T12:08:00;28.17;;;12.38;;
48526;SDS011;34317;51.660;5.824;2023-11-21T12:10:30;27.50;;;12.35;;
48526;SDS011;34317;51.660;5.824;2023-11-21T12:15:37;31.50;;;13.43;;
48526;SDS011;34317;51.660;5.824;2023-11-21T12:18:06;29.52;;;13.20;;
48526;SDS011;34317;51.660;5.824;2023-11-21T12:20:34;33.90;;;13.63;;
48526;SDS011;34317;51.660;5.824;2023-11-21T12:23:06;35.00;;;15.27;;
48526;SDS011;34317;51.660;5.824;2023-11-21T12:25:36;32.15;;;13.77;;
48526;SDS011;34317;51.660;5.824;2023-11-21T12:28:05;31.95;;;14.35;;
48526;SDS011;34317;51.660;5.824;2023-11-21T12:30:35;30.42;;;14.20;;
48526;SDS011;34317;51.660;5.824;2023-11-21T12:33:05;36.53;;;16.13;;
48526;SDS011;34317;51.660;5.824;2023-11-21T12:35:36;35.38;;;16.27;;
48526;SDS011;34317;51.660;5.824;2023-11-21T12:38:05;32.58;;;15.95;;
48526;SDS011;34317;51.660;5.824;2023-11-21T12:40:35;36.38;;;16.63;;
48526;SDS011;34317;51.660;5.824;2023-11-21T12:43:02;30.77;;;13.02;;
48526;SDS011;34317;51.660;5.824;2023-11-21T12:45:32;30.95;;;13.57;;
48526;SDS011;34317;51.660;5.824;2023-11-21T12:48:00;25.15;;;11.55;;
48526;SDS011;34317;51.660;5.824;2023-11-21T12:50:34;25.33;;;11.47;;
48526;SDS011;34317;51.660;5.824;2023-11-21T12:53:04;28.33;;;12.85;;
48526;SDS011;34317;51.660;5.824;2023-11-21T12:55:32;28.25;;;11.65;;
48526;SDS011;34317;51.660;5.824;2023-11-21T12:58:08;25.02;;;11.02;;
48526;SDS011;34317;51.660;5.824;2023-11-21T13:00:39;22.65;;;11.30;;
48526;SDS011;34317;51.660;5.824;2023-11-21T13:03:12;23.85;;;12.75;;
48526;SDS011;34317;51.660;5.824;2023-11-21T13:05:46;28.15;;;13.68;;
48526;SDS011;34317;51.660;5.824;2023-11-21T13:08:21;27.20;;;13.90;;
48526;SDS011;34317;51.660;5.824;2023-11-21T13:10:53;27.42;;;13.88;;
48526;SDS011;34317;51.660;5.824;2023-11-21T13:13:25;31.75;;;13.70;;
48526;SDS011;34317;51.660;5.824;2023-11-21T13:15:56;30.58;;;13.68;;
48526;SDS011;34317;51.660;5.824;2023-11-21T13:18:35;26.30;;;13.90;;
48526;SDS011;34317;51.660;5.824;2023-11-21T13:21:07;26.48;;;13.57;;
48526;SDS011;34317;51.660;5.824;2023-11-21T13:23:41;28.50;;;13.63;;
48526;SDS011;34317;51.660;5.824;2023-11-21T13:26:10;28.73;;;12.95;;
48526;SDS011;34317;51.660;5.824;2023-11-21T13:28:38;24.33;;;13.18;;
48526;SDS011;34317;51.660;5.824;2023-11-21T13:31:08;29.50;;;13.98;;
48526;SDS011;34317;51.660;5.824;2023-11-21T13:33:49;28.10;;;13.93;;
48526;SDS011;34317;51.660;5.824;2023-11-21T13:36:27;23.92;;;11.63;;
48526;SDS011;34317;51.660;5.824;2023-11-21T13:39:00;23.25;;;10.65;;
48526;SDS011;34317;51.660;5.824;2023-11-21T13:41:35;21.00;;;10.32;;
48526;SDS011;34317;51.660;5.824;2023-11-21T13:44:05;20.25;;;10.20;;
48526;SDS011;34317;51.660;5.824;2023-11-21T13:46:51;16.90;;;9.35;;
48526;SDS011;34317;51.660;5.824;2023-11-21T13:49:20;17.90;;;9.48;;
48526;SDS011;34317;51.660;5.824;2023-11-21T13:51:49;17.30;;;9.63;;
48526;SDS011;34317;51.660;5.824;2023-11-21T13:54:20;16.65;;;9.10;;
48526;SDS011;34317;51.660;5.824;2023-11-21T13:56:50;13.57;;;8.57;;
48526;SDS011;34317;51.660;5.824;2023-11-21T13:59:19;15.30;;;8.10;;
48526;SDS011;34317;51.660;5.824;2023-11-21T14:01:52;16.33;;;7.90;;
48526;SDS011;34317;51.660;5.824;2023-11-21T14:04:20;17.17;;;8.48;;
48526;SDS011;34317;51.660;5.824;2023-11-21T14:07:01;14.32;;;8.23;;
48526;SDS011;34317;51.660;5.824;2023-11-21T14:09:47;14.27;;;7.57;;
48526;SDS011;34317;51.660;5.824;2023-11-21T14:12:16;13.35;;;7.63;;
48526;SDS011;34317;51.660;5.824;2023-11-21T14:14:44;13.63;;;8.48;;
48526;SDS011;34317;51.660;5.824;2023-11-21T14:17:12;18.70;;;9.20;;
48526;SDS011;34317;51.660;5.824;2023-11-21T14:19:39;17.30;;;10.25;;
48526;SDS011;34317;51.660;5.824;2023-11-21T14:22:12;20.23;;;10.27;;
48526;SDS011;34317;51.660;5.824;2023-11-21T14:24:39;20.25;;;10.20;;
48526;SDS011;34317;51.660;5.824;2023-11-21T14:27:15;20.73;;;11.43;;
48526;SDS011;34317;51.660;5.824;2023-11-21T14:29:43;20.33;;;11.93;;
48526;SDS011;34317;51.660;5.824;2023-11-21T14:32:12;22.50;;;12.18;;
48526;SDS011;34317;51.660;5.824;2023-11-21T14:34:40;20.15;;;10.90;;
48526;SDS011;34317;51.660;5.824;2023-11-21T14:37:09;23.17;;;11.65;;
48526;SDS011;34317;51.660;5.824;2023-11-21T14:39:40;23.00;;;11.68;;
48526;SDS011;34317;51.660;5.824;2023-11-21T14:42:11;23.73;;;12.25;;
48526;SDS011;34317;51.660;5.824;2023-11-21T14:44:43;27.50;;;12.55;;
48526;SDS011;34317;51.660;5.824;2023-11-21T14:47:11;24.23;;;11.95;;
48526;SDS011;34317;51.660;5.824;2023-11-21T14:49:44;21.13;;;11.80;;
48526;SDS011;34317;51.660;5.824;2023-11-21T14:52:20;21.35;;;10.82;;
48526;SDS011;34317;51.660;5.824;2023-11-21T14:55:01;18.90;;;10.07;;
48526;SDS011;34317;51.660;5.824;2023-11-21T14:57:50;19.48;;;10.00;;
48526;SDS011;34317;51.660;5.824;2023-11-21T15:00:19;23.15;;;11.27;;
48526;SDS011;34317;51.660;5.824;2023-11-21T15:03:12;20.77;;;10.57;;
48526;SDS011;34317;51.660;5.824;2023-11-21T15:06:04;23.02;;;11.05;;
48526;SDS011;34317;51.660;5.824;2023-11-21T15:09:39;20.67;;;10.18;;
48526;SDS011;34317;51.660;5.824;2023-11-21T15:12:13;24.13;;;11.93;;
48526;SDS011;34317;51.660;5.824;2023-11-21T15:14:49;23.58;;;11.57;;